Time;durP1;ratioP1;P1;durP2;ratioP2;P2;SDS_P1;SDS_P2;PMS_P1;PMS_P2;Temp;Humidity;BMP_temperature;BMP_pressure;BME280_temperature;BME280_humidity;BME280_pressure;Samples;Min_cycle;Max_cycle;Signal;HPM_P1;HPM_P2
2023/02/19 00:01:17;;;;;;;14.60;14.10;;;12.30;1.00;;;;;;4999672;28;20497;-77
2023/02/19 00:03:49;;;;;;;14.30;13.90;;;12.20;1.00;;;;;;4999017;28;20457;-76
2023/02/19 00:06:18;;;;;;;13.90;13.50;;;12.20;1.00;;;;;;4998214;28;20476;-78
2023/02/19 00:08:48;;;;;;;14.17;13.57;;;12.30;1.00;;;;;;4995985;28;20453;-78
2023/02/19 00:11:18;;;;;;;14.13;13.67;;;12.30;1.00;;;;;;4998876;28;20488;-76
2023/02/19 00:13:49;;;;;;;13.77;13.37;;;12.30;1.00;;;;;;4993931;28;20454;-77
2023/02/19 00:16:18;;;;;;;13.40;12.90;;;12.30;1.00;;;;;;4999125;28;21017;-76
2023/02/19 00:18:47;;;;;;;13.73;13.23;;;12.30;1.00;;;;;;4996452;28;20486;-77
2023/02/19 00:21:16;;;;;;;13.57;13.07;;;12.30;1.00;;;;;;4998680;28;20600;-76
2023/02/19 00:23:50;;;;;;;13.33;12.90;;;12.30;1.00;;;;;;4997286;28;20459;-78
2023/02/19 00:26:18;;;;;;;13.70;13.30;;;12.40;1.00;;;;;;4997382;28;20513;-76
2023/02/19 00:28:47;;;;;;;13.40;13.00;;;12.30;1.00;;;;;;5000567;28;20459;-77
2023/02/19 00:31:18;;;;;;;13.50;13.20;;;12.30;1.00;;;;;;4998608;28;20461;-77
2023/02/19 00:33:47;;;;;;;13.63;13.23;;;12.30;1.00;;;;;;4995407;28;20473;-77
2023/02/19 00:36:16;;;;;;;13.73;13.33;;;12.30;1.00;;;;;;5000370;28;20453;-77
2023/02/19 00:38:46;;;;;;;13.00;12.60;;;12.20;1.00;;;;;;4993091;28;20465;-78
2023/02/19 00:41:19;;;;;;;13.07;12.57;;;12.20;1.00;;;;;;4994771;28;20462;-79
2023/02/19 00:43:49;;;;;;;13.20;12.80;;;12.20;1.00;;;;;;4996278;28;20455;-78
2023/02/19 00:46:19;;;;;;;13.37;13.00;;;12.20;1.00;;;;;;4997057;28;20475;-78
2023/02/19 00:48:47;;;;;;;13.03;12.53;;;12.30;1.00;;;;;;4998584;28;20458;-78
2023/02/19 00:51:16;;;;;;;13.20;12.90;;;12.20;1.00;;;;;;5000424;28;20455;-78
2023/02/19 00:53:44;;;;;;;12.80;12.50;;;12.10;1.00;;;;;;5000723;28;20454;-76
2023/02/19 00:56:13;;;;;;;13.53;13.13;;;12.10;1.00;;;;;;4998876;28;20486;-78
2023/02/19 00:58:42;;;;;;;13.30;13.00;;;12.10;1.00;;;;;;5003624;28;20452;-77
2023/02/19 01:01:11;;;;;;;13.20;12.90;;;12.10;1.00;;;;;;5002756;28;20450;-78
2023/02/19 01:03:40;;;;;;;13.00;12.70;;;12.10;1.00;;;;;;5001491;28;20487;-76
2023/02/19 01:06:10;;;;;;;13.40;13.00;;;12.10;1.00;;;;;;5001077;28;20485;-76
2023/02/19 01:08:38;;;;;;;12.90;12.60;;;12.20;1.00;;;;;;5000789;28;20560;-77
2023/02/19 01:11:08;;;;;;;13.27;12.87;;;12.10;1.00;;;;;;5003329;28;20455;-77
2023/02/19 01:13:37;;;;;;;12.70;12.47;;;12.10;1.00;;;;;;4998974;28;20461;-77
2023/02/19 01:16:09;;;;;;;12.80;12.50;;;12.10;1.00;;;;;;5001577;28;20512;-76
2023/02/19 01:18:37;;;;;;;12.67;12.30;;;12.10;1.00;;;;;;5001957;28;20472;-76
2023/02/19 01:21:06;;;;;;;13.37;12.97;;;12.10;1.00;;;;;;5000365;28;21157;-76
2023/02/19 01:23:36;;;;;;;12.93;12.63;;;12.10;1.00;;;;;;4998471;28;20536;-77
2023/02/19 01:26:06;;;;;;;13.10;12.80;;;12.00;1.00;;;;;;5001494;28;20491;-76
2023/02/19 01:28:34;;;;;;;13.40;13.10;;;11.90;1.00;;;;;;5003773;28;20491;-74
2023/02/19 01:31:03;;;;;;;13.20;12.80;;;11.90;1.00;;;;;;4998295;28;20462;-76
2023/02/19 01:33:34;;;;;;;13.37;13.07;;;11.90;1.00;;;;;;4998982;28;21009;-75
2023/02/19 01:36:04;;;;;;;13.30;12.97;;;11.90;1.00;;;;;;4998883;28;20483;-76
2023/02/19 01:38:32;;;;;;;12.80;12.50;;;11.90;1.00;;;;;;5003232;28;20968;-76
2023/02/19 01:41:02;;;;;;;13.27;12.87;;;11.90;1.00;;;;;;4997399;28;20455;-76
2023/02/19 01:43:32;;;;;;;12.70;12.40;;;11.90;1.00;;;;;;5000355;28;20457;-76
2023/02/19 01:46:01;;;;;;;12.80;12.50;;;11.90;1.00;;;;;;4999948;28;20520;-76
2023/02/19 01:48:35;;;;;;;13.53;13.13;;;12.00;1.00;;;;;;5002232;28;20462;-76
2023/02/19 01:51:07;;;;;;;13.00;12.70;;;11.90;1.00;;;;;;5001852;28;20523;-77
2023/02/19 01:53:39;;;;;;;13.67;13.27;;;11.90;1.00;;;;;;5002375;28;20455;-75
2023/02/19 01:56:08;;;;;;;14.10;13.50;;;11.90;1.00;;;;;;5002200;28;20899;-76
2023/02/19 01:58:38;;;;;;;13.60;13.30;;;11.80;1.00;;;;;;5001963;28;20473;-76
2023/02/19 02:01:08;;;;;;;13.80;13.40;;;11.80;1.00;;;;;;4998271;28;20826;-75
2023/02/19 02:03:40;;;;;;;13.83;13.43;;;11.80;19.20;;;;;;4999637;28;20445;-76
2023/02/19 02:06:14;;;;;;;14.00;13.60;;;11.80;53.60;;;;;;4998656;28;20470;-78
2023/02/19 02:11:29;;;;;;;14.37;13.87;;;11.80;97.50;;;;;;5003348;28;20449;-76
2023/02/19 02:13:58;;;;;;;14.23;13.83;;;11.70;99.90;;;;;;4999306;28;20529;-77
2023/02/19 02:16:34;;;;;;;14.40;13.90;;;11.70;99.90;;;;;;4999630;28;20478;-76
2023/02/19 02:19:17;;;;;;;14.27;13.87;;;11.80;99.90;;;;;;5000924;28;20455;-73
2023/02/19 02:22:07;;;;;;;14.60;14.10;;;11.70;99.90;;;;;;4999027;28;20458;-75
2023/02/19 02:24:53;;;;;;;13.90;13.50;;;11.60;99.90;;;;;;4998868;28;20469;-75
2023/02/19 02:27:43;;;;;;;13.70;13.30;;;11.70;99.90;;;;;;5000321;28;20497;-74
2023/02/19 02:30:39;;;;;;;14.57;14.07;;;11.70;99.90;;;;;;5001155;28;20481;-74
2023/02/19 02:33:17;;;;;;;14.10;13.70;;;11.60;99.90;;;;;;4996479;28;20492;-76
2023/02/19 02:35:50;;;;;;;13.70;13.30;;;11.60;99.90;;;;;;4997500;28;20478;-75
2023/02/19 02:38:22;;;;;;;13.93;13.63;;;11.60;99.90;;;;;;5003172;28;20451;-74
2023/02/19 02:40:52;;;;;;;13.53;13.23;;;11.70;99.90;;;;;;5004689;28;20466;-76
2023/02/19 02:43:20;;;;;;;15.07;14.47;;;11.70;99.90;;;;;;4999215;28;20456;-75
2023/02/19 02:45:49;;;;;;;14.03;13.63;;;11.70;99.90;;;;;;4995453;28;20490;-70
2023/02/19 02:48:34;;;;;;;13.80;13.40;;;11.60;99.90;;;;;;5000760;28;20466;-74
2023/02/19 02:51:09;;;;;;;14.40;14.00;;;11.60;99.90;;;;;;4995570;28;20489;-73
2023/02/19 02:56:30;;;;;;;14.30;13.80;;;11.60;99.90;;;;;;4995681;28;20498;-76
2023/02/19 02:59:01;;;;;;;14.13;13.73;;;11.60;99.90;;;;;;4998248;28;20513;-77
2023/02/19 03:04:29;;;;;;;15.60;15.10;;;11.50;99.90;;;;;;4997950;28;20457;-76
2023/02/19 03:07:01;;;;;;;14.90;14.47;;;11.50;99.90;;;;;;5000974;28;20564;-77
2023/02/19 03:09:39;;;;;;;15.10;14.70;;;11.50;99.90;;;;;;5000100;28;21156;-77
2023/02/19 03:20:40;;;;;;;14.90;14.40;;;11.60;99.90;;;;;;4998182;28;20463;-76
2023/02/19 03:23:10;;;;;;;14.40;14.00;;;11.60;99.90;;;;;;4997930;28;20457;-77
2023/02/19 03:31:15;;;;;;;13.33;13.03;;;11.50;99.90;;;;;;4994372;28;20819;-77
2023/02/19 03:33:47;;;;;;;13.40;13.10;;;11.50;99.90;;;;;;4995649;28;20443;-77
2023/02/19 03:36:17;;;;;;;13.90;13.60;;;11.50;99.90;;;;;;4999089;28;20561;-77
2023/02/19 03:38:50;;;;;;;14.50;14.10;;;11.50;99.90;;;;;;4997896;28;20457;-78
2023/02/19 03:41:25;;;;;;;13.43;13.13;;;11.50;99.90;;;;;;4997582;28;20494;-77
2023/02/19 03:44:06;;;;;;;13.40;13.10;;;11.40;99.90;;;;;;4995004;28;20464;-77
2023/02/19 03:46:42;;;;;;;13.00;12.80;;;11.40;99.90;;;;;;4998578;28;21039;-76
2023/02/19 03:49:22;;;;;;;12.93;12.63;;;11.40;99.90;;;;;;4999539;28;20452;-77
2023/02/19 03:51:54;;;;;;;13.00;12.70;;;11.40;99.90;;;;;;4996118;28;20450;-78
2023/02/19 03:54:31;;;;;;;12.70;12.50;;;11.40;99.90;;;;;;4998871;28;20443;-77
2023/02/19 03:57:05;;;;;;;13.40;13.10;;;11.40;99.90;;;;;;4996854;28;20445;-77
2023/02/19 03:59:41;;;;;;;13.20;12.90;;;11.40;99.90;;;;;;5003234;28;20466;-78
2023/02/19 04:02:13;;;;;;;13.10;12.80;;;11.40;99.90;;;;;;4998949;28;20511;-77
2023/02/19 04:04:45;;;;;;;12.63;12.40;;;11.40;99.90;;;;;;4997489;28;20449;-77
2023/02/19 04:07:14;;;;;;;12.70;12.50;;;11.30;99.90;;;;;;4996713;28;20494;-76
2023/02/19 04:09:45;;;;;;;12.73;12.53;;;11.30;99.90;;;;;;4996183;28;20466;-76
2023/02/19 04:12:15;;;;;;;12.27;12.07;;;11.30;95.40;;;;;;4997328;28;20468;-77
2023/02/19 04:14:47;;;;;;;12.73;12.53;;;11.30;99.90;;;;;;4998217;28;20524;-77
2023/02/19 04:17:24;;;;;;;12.77;12.57;;;11.30;99.90;;;;;;4996707;28;20478;-77
2023/02/19 04:19:56;;;;;;;12.50;12.30;;;11.30;99.90;;;;;;4998057;28;20449;-76
2023/02/19 04:22:25;;;;;;;12.73;12.50;;;11.20;99.90;;;;;;4997140;28;20487;-77
2023/02/19 04:24:55;;;;;;;12.50;12.30;;;11.30;84.40;;;;;;4998416;28;20561;-78
2023/02/19 04:27:23;;;;;;;12.30;12.10;;;11.30;99.90;;;;;;5002025;28;20513;-77
2023/02/19 04:29:51;;;;;;;12.63;12.43;;;11.30;54.10;;;;;;5001175;28;20474;-77
2023/02/19 04:32:19;;;;;;;12.63;12.40;;;11.30;50.60;;;;;;5001074;28;20483;-77
2023/02/19 04:34:47;;;;;;;12.10;11.90;;;11.40;1.70;;;;;;4998778;28;20491;-77
2023/02/19 04:37:17;;;;;;;12.40;12.20;;;11.40;5.00;;;;;;5000262;28;20543;-77
2023/02/19 04:39:45;;;;;;;11.97;11.77;;;11.40;1.00;;;;;;5000636;28;20464;-76
2023/02/19 04:42:13;;;;;;;11.90;11.70;;;11.40;1.00;;;;;;4998994;28;20493;-76
2023/02/19 04:44:41;;;;;;;11.77;11.57;;;11.40;1.00;;;;;;5002188;28;20454;-78
2023/02/19 04:47:09;;;;;;;12.07;11.87;;;11.40;1.00;;;;;;5001074;28;20477;-77
2023/02/19 04:49:38;;;;;;;11.70;11.50;;;11.40;1.00;;;;;;5000920;28;20561;-76
2023/02/19 04:52:06;;;;;;;11.73;11.53;;;11.40;1.00;;;;;;4997489;28;21453;-76
2023/02/19 04:54:35;;;;;;;12.10;11.90;;;11.40;1.00;;;;;;5000129;28;20451;-76
2023/02/19 04:57:03;;;;;;;12.23;11.97;;;11.30;1.00;;;;;;5005419;28;20481;-78
2023/02/19 04:59:32;;;;;;;11.70;11.50;;;11.40;1.00;;;;;;5004533;28;20458;-77
2023/02/19 05:02:00;;;;;;;11.50;11.30;;;11.30;1.00;;;;;;4999845;28;20443;-75
2023/02/19 05:04:28;;;;;;;11.40;11.20;;;11.30;1.00;;;;;;4999246;28;20965;-76
2023/02/19 05:06:56;;;;;;;11.30;11.10;;;11.30;1.00;;;;;;5000878;28;20849;-77
2023/02/19 05:09:24;;;;;;;12.40;12.20;;;11.40;1.00;;;;;;5000538;28;20463;-76
2023/02/19 05:11:53;;;;;;;11.40;11.20;;;11.30;1.00;;;;;;4999741;28;20449;-75
2023/02/19 05:14:22;;;;;;;11.97;11.77;;;11.30;1.00;;;;;;4998224;28;21240;-77
2023/02/19 05:16:50;;;;;;;11.70;11.50;;;11.30;1.00;;;;;;5001553;28;20522;-77
2023/02/19 05:19:18;;;;;;;11.70;11.50;;;11.30;1.00;;;;;;5000058;28;20453;-77
2023/02/19 05:21:46;;;;;;;11.70;11.50;;;11.40;1.00;;;;;;5003192;28;20457;-76
2023/02/19 05:24:14;;;;;;;11.80;11.60;;;11.40;1.00;;;;;;4997774;28;20472;-77
2023/02/19 05:26:42;;;;;;;11.80;11.60;;;11.30;1.00;;;;;;5002105;28;20872;-78
2023/02/19 05:29:13;;;;;;;11.70;11.50;;;11.30;1.00;;;;;;5000725;28;20453;-77
2023/02/19 05:31:42;;;;;;;11.83;11.53;;;11.30;1.00;;;;;;4996361;28;20914;-76
2023/02/19 05:34:10;;;;;;;11.37;11.17;;;11.30;1.00;;;;;;4999117;28;21419;-78
2023/02/19 05:36:39;;;;;;;11.57;11.37;;;11.30;1.00;;;;;;5001769;28;20497;-77
2023/02/19 05:39:08;;;;;;;11.20;11.00;;;11.30;1.00;;;;;;4999634;28;21258;-75
2023/02/19 05:41:36;;;;;;;11.30;11.10;;;11.30;1.00;;;;;;5001731;28;20453;-75
2023/02/19 05:44:04;;;;;;;11.30;11.10;;;11.30;1.00;;;;;;5000767;28;20465;-76
2023/02/19 05:46:34;;;;;;;11.70;11.50;;;11.30;1.00;;;;;;5000463;28;20489;-76
2023/02/19 05:49:03;;;;;;;12.07;11.83;;;11.30;1.00;;;;;;4998299;28;20493;-75
2023/02/19 05:51:31;;;;;;;11.70;11.50;;;11.30;1.00;;;;;;4998282;28;20860;-78
2023/02/19 05:53:59;;;;;;;12.07;11.67;;;11.20;1.00;;;;;;4998786;28;20824;-78
2023/02/19 05:56:32;;;;;;;11.60;11.40;;;11.20;1.00;;;;;;5001247;28;20492;-77
2023/02/19 05:59:02;;;;;;;11.30;11.10;;;11.30;1.00;;;;;;4998031;28;20465;-78
2023/02/19 06:01:31;;;;;;;11.50;11.30;;;11.20;1.00;;;;;;4999065;28;20466;-76
2023/02/19 06:04:00;;;;;;;11.40;11.20;;;11.30;1.00;;;;;;4997496;28;20458;-79
2023/02/19 06:06:29;;;;;;;11.70;11.50;;;11.30;1.00;;;;;;5001595;28;20948;-78
2023/02/19 06:08:57;;;;;;;11.10;10.90;;;11.30;1.00;;;;;;5000356;28;20470;-76
2023/02/19 06:11:25;;;;;;;11.60;11.30;;;11.30;1.00;;;;;;5002205;28;20588;-77
2023/02/19 06:13:53;;;;;;;11.70;11.50;;;11.30;1.00;;;;;;4998619;28;20461;-77
2023/02/19 06:16:22;;;;;;;11.37;11.17;;;11.30;1.00;;;;;;4999091;28;20485;-76
2023/02/19 06:18:51;;;;;;;12.00;11.70;;;11.30;1.00;;;;;;5002137;28;20442;-75
2023/02/19 06:21:20;;;;;;;11.57;11.37;;;11.30;1.00;;;;;;4998817;28;20478;-76
2023/02/19 06:23:49;;;;;;;11.80;11.60;;;11.20;1.00;;;;;;4997284;28;20457;-77
2023/02/19 06:26:19;;;;;;;11.70;11.50;;;11.20;1.00;;;;;;4999068;28;21021;-76
2023/02/19 06:28:49;;;;;;;11.80;11.60;;;11.10;1.00;;;;;;5000497;28;20473;-77
2023/02/19 06:31:19;;;;;;;11.70;11.50;;;11.10;1.00;;;;;;4998711;28;20511;-75
2023/02/19 06:33:49;;;;;;;11.90;11.70;;;11.10;1.00;;;;;;4997175;28;20465;-77
2023/02/19 06:36:21;;;;;;;12.10;11.90;;;11.10;1.00;;;;;;4997506;28;20481;-78
2023/02/19 06:38:49;;;;;;;11.90;11.70;;;11.10;1.00;;;;;;4998293;28;21151;-78
2023/02/19 06:41:17;;;;;;;12.77;12.47;;;11.10;1.00;;;;;;4997558;28;20457;-76
2023/02/19 06:43:45;;;;;;;10.90;10.70;;;11.10;1.00;;;;;;4999344;28;20548;-76
2023/02/19 06:46:14;;;;;;;11.33;11.13;;;11.10;1.00;;;;;;4995432;28;20912;-76
2023/02/19 06:48:44;;;;;;;11.00;10.80;;;11.10;1.00;;;;;;4995655;28;21042;-77
2023/02/19 06:51:13;;;;;;;11.30;11.10;;;11.10;1.00;;;;;;5001812;28;20485;-77
2023/02/19 06:53:42;;;;;;;10.90;10.70;;;11.10;1.00;;;;;;4999310;28;20464;-77
2023/02/19 06:56:24;;;;;;;11.10;10.90;;;11.10;1.00;;;;;;5002110;28;20478;-76
2023/02/19 06:58:53;;;;;;;11.30;11.10;;;11.10;1.00;;;;;;4997926;28;20445;-77
2023/02/19 07:01:21;;;;;;;11.10;10.90;;;11.20;1.00;;;;;;4999485;28;20462;-76
2023/02/19 07:03:51;;;;;;;11.20;11.00;;;11.10;1.00;;;;;;5000229;28;20491;-78
2023/02/19 07:06:20;;;;;;;11.13;10.93;;;11.10;1.00;;;;;;4998840;28;20875;-77
2023/02/19 07:08:50;;;;;;;11.20;11.00;;;11.10;1.00;;;;;;4999607;28;20491;-76
2023/02/19 07:11:18;;;;;;;11.30;11.10;;;11.10;1.00;;;;;;4994323;28;20961;-77
2023/02/19 07:13:47;;;;;;;11.20;11.00;;;11.10;99.90;;;;;;5000281;28;20449;-77
2023/02/19 07:16:16;;;;;;;10.90;10.70;;;11.10;99.90;;;;;;4997982;28;20513;-77
2023/02/19 07:18:44;;;;;;;11.10;10.90;;;11.20;99.90;;;;;;4999213;28;20460;-76
2023/02/19 07:21:14;;;;;;;10.73;10.53;;;11.10;99.90;;;;;;4999096;28;20449;-76
2023/02/19 07:23:43;;;;;;;11.00;10.80;;;11.10;99.90;;;;;;4994076;28;20461;-76
2023/02/19 07:26:15;;;;;;;11.10;10.90;;;11.10;99.90;;;;;;4999847;28;20478;-77
2023/02/19 07:28:44;;;;;;;11.40;11.20;;;11.10;99.90;;;;;;4996291;28;20505;-76
2023/02/19 07:31:13;;;;;;;11.30;11.10;;;11.10;99.90;;;;;;5000691;28;20963;-77
2023/02/19 07:33:43;;;;;;;13.53;13.03;;;11.10;99.90;;;;;;4997561;28;20551;-77
2023/02/19 07:36:12;;;;;;;11.50;11.30;;;11.10;99.90;;;;;;4999605;28;20486;-76
2023/02/19 07:38:40;;;;;;;12.03;11.63;;;11.10;99.90;;;;;;5001453;28;20471;-77
2023/02/19 07:41:08;;;;;;;11.73;11.30;;;11.10;99.90;;;;;;4996448;28;20454;-77
2023/02/19 07:43:39;;;;;;;10.80;10.60;;;11.10;99.90;;;;;;4997536;28;20964;-77
2023/02/19 07:46:09;;;;;;;11.20;11.00;;;11.10;99.90;;;;;;4998022;28;20478;-76
2023/02/19 07:48:38;;;;;;;11.10;10.90;;;11.00;99.90;;;;;;5000903;28;20462;-76
2023/02/19 07:51:10;;;;;;;11.00;10.80;;;10.90;99.90;;;;;;4999496;28;21161;-76
2023/02/19 07:53:39;;;;;;;11.10;10.90;;;10.90;99.90;;;;;;4998730;28;20515;-78
2023/02/19 07:56:10;;;;;;;10.90;10.70;;;11.00;1.00;;;;;;4997437;28;20503;-77
2023/02/19 07:58:40;;;;;;;11.20;11.00;;;11.00;1.00;;;;;;4998711;28;20461;-76
2023/02/19 08:01:09;;;;;;;11.67;11.40;;;11.00;1.00;;;;;;4994238;28;21047;-76
2023/02/19 08:03:37;;;;;;;11.20;10.90;;;11.00;1.00;;;;;;4998481;28;20461;-75
2023/02/19 08:06:06;;;;;;;11.50;11.20;;;11.00;1.00;;;;;;4994400;28;20493;-74
2023/02/19 08:08:34;;;;;;;12.33;12.03;;;11.00;1.00;;;;;;4999328;28;20492;-76
2023/02/19 08:13:52;;;;;;;10.80;10.60;;;11.10;1.00;;;;;;4996875;28;20551;-75
2023/02/19 08:16:22;;;;;;;11.60;11.40;;;11.10;1.00;;;;;;4995953;28;21094;-77
2023/02/19 08:19:07;;;;;;;11.23;11.03;;;11.10;1.00;;;;;;5000078;28;20481;-76
2023/02/19 08:21:35;;;;;;;11.00;10.80;;;11.10;99.90;;;;;;4995231;28;20465;-77
2023/02/19 08:24:04;;;;;;;10.70;10.50;;;11.10;1.00;;;;;;4997533;28;20457;-76
2023/02/19 08:26:33;;;;;;;11.10;10.80;;;11.10;1.00;;;;;;4994625;28;20484;-77
2023/02/19 08:29:02;;;;;;;11.60;11.27;;;11.10;1.00;;;;;;4998438;28;20513;-76
2023/02/19 08:31:31;;;;;;;10.90;10.70;;;11.00;1.00;;;;;;4994300;28;20466;-77
2023/02/19 08:33:59;;;;;;;11.07;10.67;;;11.00;1.00;;;;;;4994494;28;20457;-76
2023/02/19 08:36:27;;;;;;;12.00;11.70;;;11.00;1.00;;;;;;4996712;28;20493;-75
2023/02/19 08:38:55;;;;;;;14.10;13.40;;;11.00;1.00;;;;;;4997590;28;20463;-76
2023/02/19 08:41:23;;;;;;;14.07;13.27;;;11.00;1.00;;;;;;4998336;28;20495;-75
2023/02/19 08:43:51;;;;;;;13.03;12.43;;;11.00;1.00;;;;;;5000192;28;21029;-75
2023/02/19 08:46:21;;;;;;;11.10;10.90;;;11.00;1.00;;;;;;4995634;28;20473;-76
2023/02/19 08:48:49;;;;;;;10.53;10.33;;;11.00;1.00;;;;;;4999444;28;20478;-75
2023/02/19 08:51:17;;;;;;;11.03;10.60;;;11.00;1.00;;;;;;4997756;28;20454;-75
2023/02/19 08:53:46;;;;;;;11.33;11.03;;;11.00;1.00;;;;;;4998893;28;20460;-77
2023/02/19 08:56:16;;;;;;;11.10;10.90;;;11.00;1.00;;;;;;4996963;28;20478;-76
2023/02/19 08:58:44;;;;;;;10.70;10.50;;;11.00;1.00;;;;;;4996558;28;20476;-75
2023/02/19 09:01:14;;;;;;;10.70;10.50;;;11.10;1.00;;;;;;4995425;28;20472;-75
2023/02/19 09:03:44;;;;;;;10.87;10.67;;;11.10;1.00;;;;;;4999413;28;20453;-76
2023/02/19 09:06:16;;;;;;;10.57;10.37;;;11.10;99.90;;;;;;4998300;28;20462;-74
2023/02/19 09:08:44;;;;;;;10.80;10.40;;;11.20;99.90;;;;;;4996732;28;20539;-78
2023/02/19 09:11:12;;;;;;;9.83;9.63;;;11.20;99.90;;;;;;4998699;28;20448;-76
2023/02/19 09:13:41;;;;;;;10.50;10.30;;;11.20;99.90;;;;;;5002396;28;21335;-75
2023/02/19 09:16:10;;;;;;;10.47;10.27;;;11.30;99.90;;;;;;5002734;28;20489;-76
2023/02/19 09:18:38;;;;;;;10.23;9.93;;;11.20;99.90;;;;;;5000763;28;20464;-75
2023/02/19 09:21:07;;;;;;;10.33;10.10;;;11.20;99.90;;;;;;5001635;28;20456;-76
2023/02/19 09:23:37;;;;;;;10.20;9.70;;;11.30;99.90;;;;;;5000960;28;21003;-77
2023/02/19 09:26:08;;;;;;;9.80;9.60;;;11.30;99.90;;;;;;5001880;28;20564;-77
2023/02/19 09:28:40;;;;;;;10.70;10.30;;;11.40;99.90;;;;;;5003898;28;20473;-76
2023/02/19 09:31:10;;;;;;;10.67;10.37;;;11.30;99.90;;;;;;4995501;28;20531;-76
2023/02/19 09:33:42;;;;;;;9.83;9.60;;;11.40;99.90;;;;;;5002930;28;21124;-77
2023/02/19 09:36:12;;;;;;;10.40;10.10;;;11.30;99.90;;;;;;4997197;28;20476;-76
2023/02/19 09:38:41;;;;;;;9.97;9.77;;;11.30;99.90;;;;;;4997722;28;20457;-78
2023/02/19 09:41:16;;;;;;;10.70;10.00;;;11.20;99.90;;;;;;4997911;28;20546;-76
2023/02/19 09:43:45;;;;;;;9.90;9.50;;;11.20;99.90;;;;;;4999151;28;20452;-76
2023/02/19 09:46:27;;;;;;;10.37;9.87;;;11.20;99.90;;;;;;5001715;28;20534;-76
2023/02/19 09:49:03;;;;;;;9.83;9.63;;;11.20;99.90;;;;;;5000088;28;20512;-77
2023/02/19 09:51:36;;;;;;;9.40;9.20;;;11.20;99.90;;;;;;5001753;28;20461;-74
2023/02/19 09:54:06;;;;;;;10.03;9.80;;;11.20;99.90;;;;;;5000243;28;20457;-76
2023/02/19 09:56:35;;;;;;;9.83;9.60;;;11.20;99.90;;;;;;4998539;28;20486;-76
2023/02/19 09:59:04;;;;;;;9.70;9.50;;;11.10;99.90;;;;;;5005833;28;20464;-75
2023/02/19 10:01:37;;;;;;;10.27;9.87;;;11.20;99.90;;;;;;5000912;28;20553;-76
2023/02/19 10:04:05;;;;;;;9.93;9.60;;;11.20;99.90;;;;;;5000433;28;20464;-76
2023/02/19 10:06:36;;;;;;;9.30;9.00;;;11.10;99.90;;;;;;4996916;28;21040;-76
2023/02/19 10:09:19;;;;;;;9.80;9.60;;;11.10;99.90;;;;;;5001350;28;20453;-75
2023/02/19 10:11:49;;;;;;;9.63;9.43;;;11.00;99.90;;;;;;4998787;28;20533;-75
2023/02/19 10:14:21;;;;;;;9.73;9.50;;;11.00;99.90;;;;;;4998623;28;20453;-76
2023/02/19 10:16:50;;;;;;;9.47;9.27;;;11.10;99.90;;;;;;4997819;28;20488;-75
2023/02/19 10:19:18;;;;;;;9.80;9.40;;;11.10;99.90;;;;;;4997868;28;20465;-76
2023/02/19 10:21:48;;;;;;;10.80;10.30;;;11.10;99.90;;;;;;4999235;28;20457;-75
2023/02/19 10:24:24;;;;;;;10.60;10.30;;;11.00;99.90;;;;;;5004024;28;20456;-76
2023/02/19 10:26:52;;;;;;;10.13;9.93;;;11.00;99.90;;;;;;4998786;28;21247;-77
2023/02/19 10:29:23;;;;;;;9.60;9.30;;;11.00;99.90;;;;;;4999771;28;20461;-76
2023/02/19 10:32:12;;;;;;;9.73;9.43;;;11.00;99.90;;;;;;4997599;28;20442;-76
2023/02/19 10:34:40;;;;;;;9.90;9.57;;;11.00;99.90;;;;;;4996456;28;20450;-76
2023/02/19 10:37:14;;;;;;;10.40;10.00;;;11.00;99.90;;;;;;4999075;28;21315;-77
2023/02/19 10:39:44;;;;;;;9.57;9.37;;;11.10;99.90;;;;;;5002229;28;20460;-77
2023/02/19 10:42:21;;;;;;;10.20;9.50;;;11.10;99.90;;;;;;4998029;28;20488;-75
2023/02/19 10:44:53;;;;;;;8.87;8.57;;;11.10;99.90;;;;;;5001028;28;20450;-76
2023/02/19 10:47:24;;;;;;;9.07;8.87;;;11.10;99.90;;;;;;4998867;28;20508;-76
2023/02/19 10:49:55;;;;;;;8.23;8.03;;;11.20;99.90;;;;;;4999374;28;20500;-76
2023/02/19 10:52:28;;;;;;;8.43;8.23;;;11.20;99.90;;;;;;4999654;28;20458;-77
2023/02/19 10:54:57;;;;;;;9.80;9.30;;;11.20;99.90;;;;;;4994045;28;20977;-77
2023/02/19 10:57:34;;;;;;;8.50;8.30;;;11.20;99.90;;;;;;5001653;28;20450;-76
2023/02/19 11:00:18;;;;;;;8.50;8.20;;;11.20;99.90;;;;;;5000715;28;20448;-76
2023/02/19 11:02:46;;;;;;;8.87;8.57;;;11.30;99.90;;;;;;4999116;28;20494;-76
2023/02/19 11:05:18;;;;;;;9.47;9.07;;;11.40;99.90;;;;;;4999084;28;20567;-76
2023/02/19 11:07:50;;;;;;;8.53;8.43;;;11.50;99.90;;;;;;4999724;28;20435;-76
2023/02/19 11:10:29;;;;;;;9.07;8.57;;;11.50;99.90;;;;;;4999003;28;20480;-77
2023/02/19 11:13:00;;;;;;;8.60;8.30;;;11.50;99.90;;;;;;4997851;28;20861;-77
2023/02/19 11:15:30;;;;;;;8.40;8.10;;;11.60;99.90;;;;;;4999471;28;20505;-76
2023/02/19 11:18:02;;;;;;;8.40;8.20;;;11.50;99.90;;;;;;5001441;28;20463;-76
2023/02/19 11:20:31;;;;;;;8.53;8.33;;;11.50;99.90;;;;;;4998039;28;20482;-76
2023/02/19 11:23:06;;;;;;;8.40;8.20;;;11.50;99.90;;;;;;4998734;28;20455;-75
2023/02/19 11:25:35;;;;;;;8.83;8.53;;;11.50;99.90;;;;;;4999013;28;20488;-76
2023/02/19 11:28:07;;;;;;;8.87;8.67;;;11.50;99.90;;;;;;4996937;28;20446;-76
2023/02/19 11:30:40;;;;;;;8.20;7.73;;;11.50;99.90;;;;;;4997766;28;20488;-76
2023/02/19 11:33:26;;;;;;;8.10;7.87;;;11.50;99.90;;;;;;4999306;28;20949;-76
2023/02/19 11:36:18;;;;;;;9.50;9.10;;;11.40;99.90;;;;;;5004929;28;20496;-77
2023/02/19 11:38:47;;;;;;;9.63;9.23;;;11.40;99.90;;;;;;4999902;28;20468;-75
2023/02/19 11:41:24;;;;;;;8.80;8.50;;;11.40;99.90;;;;;;4995923;28;20452;-76
2023/02/19 11:44:11;;;;;;;8.23;8.03;;;11.40;99.90;;;;;;5000833;28;20446;-76
2023/02/19 11:46:52;;;;;;;8.73;8.33;;;11.40;99.90;;;;;;4998730;28;20495;-77
2023/02/19 11:49:37;;;;;;;8.30;8.10;;;11.40;99.90;;;;;;4998862;28;20465;-75
2023/02/19 11:52:20;;;;;;;8.50;8.20;;;11.50;99.90;;;;;;4993569;28;20997;-76
2023/02/19 11:54:54;;;;;;;8.77;8.57;;;11.50;99.90;;;;;;4998176;28;20489;-77
2023/02/19 11:57:46;;;;;;;8.60;8.40;;;11.50;99.90;;;;;;4997006;28;20465;-77
2023/02/19 12:00:25;;;;;;;9.10;8.60;;;11.50;99.90;;;;;;4996067;28;20458;-76
2023/02/19 12:03:18;;;;;;;8.10;7.80;;;11.50;99.90;;;;;;4996207;28;20961;-76
2023/02/19 12:06:18;;;;;;;8.10;7.70;;;11.50;99.90;;;;;;4997712;28;20479;-77
2023/02/19 12:09:18;;;;;;;7.83;7.63;;;11.50;99.90;;;;;;4998472;28;20520;-75
2023/02/19 12:12:01;;;;;;;8.10;7.90;;;11.50;99.90;;;;;;4994888;28;21285;-78
2023/02/19 12:14:47;;;;;;;8.67;8.30;;;11.40;99.90;;;;;;4996876;28;20449;-76
2023/02/19 12:17:24;;;;;;;8.50;8.20;;;11.50;99.90;;;;;;4997168;28;20461;-77
2023/02/19 12:20:08;;;;;;;8.83;8.53;;;11.50;99.90;;;;;;4997960;28;20457;-75
2023/02/19 12:22:44;;;;;;;7.90;7.70;;;11.60;99.90;;;;;;4997771;28;20455;-77
2023/02/19 12:25:30;;;;;;;7.60;7.33;;;11.60;99.90;;;;;;4997704;28;20477;-76
2023/02/19 12:28:24;;;;;;;8.13;7.93;;;11.60;99.90;;;;;;4998803;28;20552;-75
2023/02/19 12:31:14;;;;;;;7.83;7.63;;;11.70;99.90;;;;;;4996982;28;20485;-75
2023/02/19 12:34:00;;;;;;;8.63;8.33;;;11.70;99.90;;;;;;4997358;28;20986;-76
2023/02/19 12:36:37;;;;;;;7.70;7.60;;;11.60;99.90;;;;;;4997532;28;20473;-76
2023/02/19 12:39:15;;;;;;;8.57;8.20;;;11.70;99.90;;;;;;4997983;28;20457;-75
2023/02/19 12:41:49;;;;;;;8.33;8.10;;;11.80;99.90;;;;;;4997856;28;20457;-76
2023/02/19 12:44:22;;;;;;;8.63;8.33;;;11.90;99.90;;;;;;4997172;28;20455;-75
2023/02/19 12:46:56;;;;;;;8.40;8.20;;;12.00;99.90;;;;;;4995415;28;20541;-76
2023/02/19 12:49:30;;;;;;;8.90;8.60;;;12.10;99.90;;;;;;5001128;28;20458;-76
2023/02/19 12:52:01;;;;;;;8.97;8.67;;;12.10;99.90;;;;;;5003965;28;20478;-75
2023/02/19 12:54:34;;;;;;;8.37;8.17;;;12.20;99.90;;;;;;5000747;28;20493;-76
2023/02/19 12:57:05;;;;;;;9.03;8.73;;;12.20;99.90;;;;;;4998751;28;20460;-76
2023/02/19 12:59:40;;;;;;;8.60;8.40;;;12.30;99.90;;;;;;5003160;28;20461;-75
2023/02/19 13:02:16;;;;;;;8.70;8.40;;;12.30;99.90;;;;;;5018054;28;20487;-77
2023/02/19 13:04:49;;;;;;;8.80;8.60;;;12.30;99.90;;;;;;4999052;28;20455;-77
2023/02/19 13:07:24;;;;;;;10.00;8.93;;;12.40;99.90;;;;;;4996047;28;20514;-77
2023/02/19 13:09:55;;;;;;;8.40;8.10;;;12.40;99.90;;;;;;5004112;28;20453;-77
2023/02/19 13:12:26;;;;;;;8.50;8.30;;;12.40;99.90;;;;;;4998891;28;20481;-77
2023/02/19 13:14:59;;;;;;;8.93;8.60;;;12.40;99.90;;;;;;5003104;28;20466;-76
2023/02/19 13:17:34;;;;;;;8.30;8.10;;;12.40;99.90;;;;;;4999878;28;20516;-77
2023/02/19 13:20:13;;;;;;;8.00;7.80;;;12.40;99.90;;;;;;5000533;28;20444;-76
2023/02/19 13:25:54;;;;;;;8.33;8.13;;;12.40;99.90;;;;;;4997441;28;20478;-78
2023/02/19 13:28:42;;;;;;;8.30;7.70;;;12.40;99.90;;;;;;5003552;28;20465;-77